Station Historical Data
Daily Summary for March 9, 2017 Units:  English    Metric   Both
« Previous Day
Next Day »
Daily Weekly Monthly Yearly Custom
  High: Low: Average:
Temperature: 39.2 °F 31.7 °F 34.6 °F
Dew Point: 26.4 °F 15.3 °F 20.7 °F
Humidity: 73% 43% 57%
Wind Speed: 17.0mph 0.0mph 6.2mph
Wind Gust: 25.0mph - -
Wind- - West
Pressure: 30.13 in 29.90 in -
Precipitation: 0.00 in    
Historical Graphs
 
 
Tabular Data for March 9, 2017
Time Temperature Dew Point Pressure Wind Wind Speed Wind Gust Humidity Rainfall Rate (Hourly)
00:04 38.6 °F 25.9 °F 29.90 in West 5.0 mph 11.0 mph 60% 0.00 in
00:09 38.5 °F 25.8 °F 29.90 in West 5.0 mph 11.0 mph 60% 0.00 in
00:14 38.5 °F 25.4 °F 29.90 in West 5.0 mph 12.0 mph 59% 0.00 in
00:19 38.6 °F 24.7 °F 29.91 in West 6.0 mph 12.0 mph 57% 0.00 in
00:24 38.9 °F 24.5 °F 29.91 in West 3.0 mph 20.0 mph 56% 0.00 in
00:29 39.0 °F 23.7 °F 29.91 in SW 4.0 mph 18.0 mph 54% 0.00 in
00:34 39.1 °F 25.1 °F 29.91 in West 2.0 mph 15.0 mph 57% 0.00 in
00:39 39.0 °F 24.2 °F 29.91 in WSW 7.0 mph 18.0 mph 55% 0.00 in
00:44 39.2 °F 23.9 °F 29.92 in West 7.0 mph 18.0 mph 54% 0.00 in
00:49 39.0 °F 23.7 °F 29.92 in West 7.0 mph 18.0 mph 54% 0.00 in
00:54 38.9 °F 22.3 °F 29.92 in West 7.0 mph 16.0 mph 51% 0.00 in
00:59 39.0 °F 21.4 °F 29.93 in SW 3.0 mph 17.0 mph 49% 0.00 in
01:04 38.9 °F 20.9 °F 29.93 in West 7.0 mph 14.0 mph 48% 0.00 in
01:09 38.8 °F 20.8 °F 29.93 in WNW 9.0 mph 13.0 mph 48% 0.00 in
01:14 38.6 °F 20.6 °F 29.94 in West 7.0 mph 14.0 mph 48% 0.00 in
01:19 38.7 °F 20.2 °F 29.94 in West 8.0 mph 21.0 mph 47% 0.00 in
01:24 38.8 °F 19.8 °F 29.94 in West 9.0 mph 21.0 mph 46% 0.00 in
01:29 38.6 °F 19.6 °F 29.94 in WNW 12.0 mph 19.0 mph 46% 0.00 in
01:34 38.4 °F 19.4 °F 29.95 in NW 6.0 mph 15.0 mph 46% 0.00 in
01:39 38.2 °F 18.7 °F 29.95 in West 8.0 mph 22.0 mph 45% 0.00 in
01:44 38.0 °F 18.5 °F 29.96 in West 17.0 mph 18.0 mph 45% 0.00 in
01:49 37.9 °F 17.4 °F 29.96 in West 9.0 mph 20.0 mph 43% 0.00 in
01:54 37.9 °F 17.4 °F 29.96 in West 10.0 mph 20.0 mph 43% 0.00 in
01:59 37.7 °F 17.2 °F 29.96 in West 11.0 mph 24.0 mph 43% 0.00 in
02:04 37.4 °F 17.4 °F 29.96 in WNW 17.0 mph 18.0 mph 44% 0.00 in
02:09 37.2 °F 17.3 °F 29.97 in West 4.0 mph 20.0 mph 44% 0.00 in
02:14 37.0 °F 17.1 °F 29.97 in NW 10.0 mph 18.0 mph 44% 0.00 in
02:19 37.0 °F 17.1 °F 29.97 in West 13.0 mph 25.0 mph 44% 0.00 in
02:24 36.9 °F 17.0 °F 29.97 in West 12.0 mph 25.0 mph 44% 0.00 in
02:29 36.8 °F 17.4 °F 29.97 in West 11.0 mph 22.0 mph 45% 0.00 in
02:34 36.6 °F 17.7 °F 29.97 in West 11.0 mph 22.0 mph 46% 0.00 in
02:39 36.5 °F 17.7 °F 29.97 in West 11.0 mph 20.0 mph 46% 0.00 in
02:44 36.4 °F 17.6 °F 29.97 in West 10.0 mph 24.0 mph 46% 0.00 in
02:49 36.2 °F 17.9 °F 29.97 in WNW 15.0 mph 19.0 mph 47% 0.00 in
02:54 36.1 °F 17.8 °F 29.98 in WNW 4.0 mph 19.0 mph 47% 0.00 in
02:59 36.0 °F 18.2 °F 29.97 in West 9.0 mph 19.0 mph 48% 0.00 in
03:04 35.9 °F 18.1 °F 29.98 in West 4.0 mph 15.0 mph 48% 0.00 in
03:09 35.7 °F 17.9 °F 29.98 in West 7.0 mph 17.0 mph 48% 0.00 in
03:14 35.5 °F 17.7 °F 29.98 in West 5.0 mph 14.0 mph 48% 0.00 in
03:19 35.3 °F 18.5 °F 29.98 in NW 6.0 mph 12.0 mph 50% 0.00 in
03:24 35.2 °F 18.9 °F 29.99 in West 11.0 mph 19.0 mph 51% 0.00 in
03:29 35.2 °F 18.9 °F 29.99 in NW 8.0 mph 23.0 mph 51% 0.00 in
03:34 35.0 °F 18.7 °F 29.99 in West 9.0 mph 23.0 mph 51% 0.00 in
03:39 34.9 °F 18.1 °F 29.99 in West 8.0 mph 21.0 mph 50% 0.00 in
03:44 34.9 °F 18.6 °F 29.99 in West 8.0 mph 19.0 mph 51% 0.00 in
03:49 34.6 °F 18.3 °F 29.99 in West 7.0 mph 13.0 mph 51% 0.00 in
03:54 34.4 °F 18.1 °F 29.99 in West 7.0 mph 14.0 mph 51% 0.00 in
03:59 34.3 °F 18.0 °F 30.00 in West 11.0 mph 18.0 mph 51% 0.00 in
04:04 34.4 °F 17.2 °F 30.00 in West 10.0 mph 20.0 mph 49% 0.00 in
04:09 34.2 °F 17.5 °F 30.00 in WSW 6.0 mph 15.0 mph 50% 0.00 in
04:14 34.0 °F 17.3 °F 30.01 in West 7.0 mph 17.0 mph 50% 0.00 in
04:19 33.8 °F 17.1 °F 30.01 in West 6.0 mph 14.0 mph 50% 0.00 in
04:24 33.8 °F 16.6 °F 30.01 in West 16.0 mph 21.0 mph 49% 0.00 in
04:29 33.9 °F 16.7 °F 30.01 in West 6.0 mph 21.0 mph 49% 0.00 in
04:34 33.6 °F 16.9 °F 30.01 in West 8.0 mph 17.0 mph 50% 0.00 in
04:39 33.4 °F 16.7 °F 30.02 in West 8.0 mph 17.0 mph 50% 0.00 in
04:44 33.2 °F 16.5 °F 30.02 in West 7.0 mph 13.0 mph 50% 0.00 in
04:49 33.0 °F 17.3 °F 30.03 in West 6.0 mph 13.0 mph 52% 0.00 in
04:54 32.9 °F 16.7 °F 30.03 in West 6.0 mph 15.0 mph 51% 0.00 in
04:59 33.0 °F 16.4 °F 30.03 in West 7.0 mph 17.0 mph 50% 0.00 in
05:04 33.2 °F 16.5 °F 30.03 in West 8.0 mph 18.0 mph 50% 0.00 in
05:09 32.9 °F 16.3 °F 30.03 in West 8.0 mph 17.0 mph 50% 0.00 in
05:14 32.8 °F 16.2 °F 30.02 in West 8.0 mph 17.0 mph 50% 0.00 in
05:19 32.6 °F 16.4 °F 30.02 in West 7.0 mph 15.0 mph 51% 0.00 in
05:24 32.5 °F 16.4 °F 30.02 in NW 6.0 mph 14.0 mph 51% 0.00 in
05:29 32.3 °F 16.6 °F 30.03 in West 5.0 mph 10.0 mph 52% 0.00 in
05:34 32.3 °F 16.2 °F 30.04 in West 4.0 mph 13.0 mph 51% 0.00 in
05:39 32.4 °F 16.3 °F 30.04 in West 4.0 mph 13.0 mph 51% 0.00 in
05:44 32.3 °F 16.6 °F 30.04 in West 6.0 mph 13.0 mph 52% 0.00 in
05:49 32.3 °F 16.6 °F 30.04 in West 5.0 mph 11.0 mph 52% 0.00 in
05:54 32.1 °F 16.9 °F 30.05 in West 5.0 mph 15.0 mph 53% 0.00 in
05:59 32.3 °F 17.1 °F 30.05 in West 6.0 mph 15.0 mph 53% 0.00 in
06:04 32.5 °F 16.8 °F 30.05 in West 6.0 mph 12.0 mph 52% 0.00 in
06:09 32.4 °F 17.2 °F 30.05 in SW 5.0 mph 10.0 mph 53% 0.00 in
06:14 32.5 °F 17.2 °F 30.06 in West 5.0 mph 10.0 mph 53% 0.00 in
06:19 32.6 °F 17.3 °F 30.06 in WSW 5.0 mph 10.0 mph 53% 0.00 in
06:24 32.5 °F 17.7 °F 30.06 in WSW 5.0 mph 10.0 mph 54% 0.00 in
06:29 32.6 °F 17.3 °F 30.06 in WSW 4.0 mph 11.0 mph 53% 0.00 in
06:34 32.5 °F 17.2 °F 30.06 in West 4.0 mph 10.0 mph 53% 0.00 in
06:39 32.6 °F 17.8 °F 30.06 in West 3.0 mph 12.0 mph 54% 0.00 in
06:44 32.6 °F 17.8 °F 30.07 in West 4.0 mph 8.0 mph 54% 0.00 in
06:49 32.7 °F 17.9 °F 30.07 in West 3.0 mph 10.0 mph 54% 0.00 in
06:54 32.7 °F 17.4 °F 30.07 in West 6.0 mph 12.0 mph 53% 0.00 in
06:59 32.8 °F 18.0 °F 30.07 in WSW 6.0 mph 12.0 mph 54% 0.00 in
07:04 32.8 °F 18.0 °F 30.08 in West 6.0 mph 15.0 mph 54% 0.00 in
07:09 32.8 °F 18.0 °F 30.07 in West 7.0 mph 15.0 mph 54% 0.00 in
07:14 32.8 °F 18.0 °F 30.07 in West 7.0 mph 17.0 mph 54% 0.00 in
07:19 32.8 °F 18.0 °F 30.08 in West 8.0 mph 15.0 mph 54% 0.00 in
07:24 32.8 °F 18.4 °F 30.08 in WSW 3.0 mph 16.0 mph 55% 0.00 in
07:29 32.8 °F 18.4 °F 30.08 in West 7.0 mph 16.0 mph 55% 0.00 in
07:34 32.8 °F 18.4 °F 30.09 in West 6.0 mph 13.0 mph 55% 0.00 in
07:39 32.8 °F 18.4 °F 30.08 in West 7.0 mph 15.0 mph 55% 0.00 in
07:44 32.8 °F 18.4 °F 30.08 in WNW 6.0 mph 15.0 mph 55% 0.00 in
07:49 32.8 °F 18.8 °F 30.09 in West 8.0 mph 15.0 mph 56% 0.00 in
07:54 32.8 °F 18.4 °F 30.09 in West 7.0 mph 15.0 mph 55% 0.00 in
07:59 32.9 °F 18.9 °F 30.09 in WSW 5.0 mph 13.0 mph 56% 0.00 in
08:04 32.8 °F 18.8 °F 30.09 in West 8.0 mph 13.0 mph 56% 0.00 in
08:09 32.8 °F 18.8 °F 30.10 in West 7.0 mph 13.0 mph 56% 0.00 in
08:14 32.8 °F 18.8 °F 30.10 in WSW 5.0 mph 11.0 mph 56% 0.00 in
08:19 32.8 °F 18.8 °F 30.10 in WSW 7.0 mph 16.0 mph 56% 0.00 in
08:24 32.8 °F 18.8 °F 30.10 in SW 5.0 mph 16.0 mph 56% 0.00 in
08:29 32.7 °F 17.4 °F 30.10 in West 8.0 mph 14.0 mph 53% 0.00 in
08:34 32.7 °F 17.4 °F 30.10 in NW 15.0 mph 16.0 mph 53% 0.00 in
08:39 32.6 °F 16.9 °F 30.10 in West 9.0 mph 17.0 mph 52% 0.00 in
08:44 32.7 °F 17.0 °F 30.10 in West 9.0 mph 17.0 mph 52% 0.00 in
08:49 33.0 °F 17.7 °F 30.09 in West 7.0 mph 17.0 mph 53% 0.00 in
08:54 32.9 °F 17.6 °F 30.09 in West 6.0 mph 14.0 mph 53% 0.00 in
08:59 32.8 °F 16.6 °F 30.09 in WSW 8.0 mph 14.0 mph 51% 0.00 in
09:04 33.0 °F 16.8 °F 30.11 in West 6.0 mph 16.0 mph 51% 0.00 in
09:09 33.1 °F 16.9 °F 30.11 in West 7.0 mph 16.0 mph 51% 0.00 in
09:14 33.1 °F 16.9 °F 30.11 in West 7.0 mph 14.0 mph 51% 0.00 in
09:19 33.0 °F 15.9 °F 30.11 in WNW 8.0 mph 13.0 mph 49% 0.00 in
09:24 33.1 °F 16.0 °F 30.12 in West 11.0 mph 16.0 mph 49% 0.00 in
09:29 33.0 °F 16.4 °F 30.12 in West 5.0 mph 17.0 mph 50% 0.00 in
09:34 33.0 °F 16.4 °F 30.13 in West 8.0 mph 18.0 mph 50% 0.00 in
09:39 33.2 °F 16.1 °F 30.12 in WSW 6.0 mph 13.0 mph 49% 0.00 in
09:44 33.0 °F 15.4 °F 30.12 in West 7.0 mph 14.0 mph 48% 0.00 in
09:49 32.8 °F 16.2 °F 30.12 in West 7.0 mph 16.0 mph 50% 0.00 in
09:54 32.8 °F 15.7 °F 30.12 in West 8.0 mph 16.0 mph 49% 0.00 in
09:59 32.9 °F 15.8 °F 30.12 in West 8.0 mph 15.0 mph 49% 0.00 in
10:04 32.9 °F 15.8 °F 30.12 in West 7.0 mph 14.0 mph 49% 0.00 in
10:09 32.8 °F 16.2 °F 30.12 in WSW 7.0 mph 14.0 mph 50% 0.00 in
10:14 32.8 °F 16.2 °F 30.12 in West 7.0 mph 14.0 mph 50% 0.00 in
10:19 32.9 °F 15.8 °F 30.12 in West 10.0 mph 12.0 mph 49% 0.00 in
10:24 32.9 °F 15.3 °F 30.11 in WNW 3.0 mph 17.0 mph 48% 0.00 in
10:29 33.3 °F 15.7 °F 30.11 in WNW 5.0 mph 14.0 mph 48% 0.00 in
10:34 33.4 °F 15.8 °F 30.12 in WNW 9.0 mph 11.0 mph 48% 0.00 in
10:39 33.3 °F 16.2 °F 30.11 in WSW 6.0 mph 10.0 mph 49% 0.00 in
10:44 33.6 °F 16.9 °F 30.11 in West 2.0 mph 9.0 mph 50% 0.00 in
10:49 33.8 °F 17.6 °F 30.12 in West 4.0 mph 10.0 mph 51% 0.00 in
10:54 33.7 °F 17.0 °F 30.12 in West 5.0 mph 10.0 mph 50% 0.00 in
10:59 33.7 °F 17.0 °F 30.12 in West 5.0 mph 11.0 mph 50% 0.00 in
11:04 34.0 °F 17.7 °F 30.12 in West 6.0 mph 12.0 mph 51% 0.00 in
11:09 34.3 °F 17.1 °F 30.12 in WSW 5.0 mph 11.0 mph 49% 0.00 in
11:14 34.4 °F 17.2 °F 30.12 in SW 4.0 mph 12.0 mph 49% 0.00 in
11:19 34.7 °F 17.9 °F 30.12 in WSW 5.0 mph 12.0 mph 50% 0.00 in
11:24 35.1 °F 18.8 °F 30.12 in West 4.0 mph 9.0 mph 51% 0.00 in
11:29 35.1 °F 18.8 °F 30.13 in South 8.0 mph 13.0 mph 51% 0.00 in
11:34 35.0 °F 18.2 °F 30.13 in WSW 7.0 mph 13.0 mph 50% 0.00 in
11:39 35.2 °F 19.3 °F 30.13 in WSW 4.0 mph 8.0 mph 52% 0.00 in
11:44 35.5 °F 19.1 °F 30.12 in West 10.0 mph 14.0 mph 51% 0.00 in
11:49 35.9 °F 19.5 °F 30.12 in West 6.0 mph 14.0 mph 51% 0.00 in
11:54 36.1 °F 19.7 °F 30.12 in West 6.0 mph 12.0 mph 51% 0.00 in
11:59 36.2 °F 19.3 °F 30.12 in West 6.0 mph 12.0 mph 50% 0.00 in
12:04 37.5 °F 20.1 °F 30.11 in West 3.0 mph 12.0 mph 49% 0.00 in
12:09 36.9 °F 20.0 °F 30.11 in West 6.0 mph 13.0 mph 50% 0.00 in
12:14 36.1 °F 19.2 °F 30.11 in WSW 3.0 mph 13.0 mph 50% 0.00 in
12:19 35.8 °F 19.9 °F 30.11 in WSW 7.0 mph 13.0 mph 52% 0.00 in
12:29 36.0 °F 20.9 °F 30.11 in WSW 8.0 mph 15.0 mph 54% 0.00 in
12:34 36.2 °F 20.7 °F 30.11 in SW 3.0 mph 13.0 mph 53% 0.00 in
12:39 36.6 °F 21.1 °F 30.11 in SW 5.0 mph 15.0 mph 53% 0.00 in
12:44 36.2 °F 21.1 °F 30.12 in SW 9.0 mph 18.0 mph 54% 0.00 in
12:49 36.3 °F 21.2 °F 30.12 in West 11.0 mph 15.0 mph 54% 0.00 in
12:54 35.8 °F 20.8 °F 30.11 in SW 9.0 mph 16.0 mph 54% 0.00 in
12:59 35.6 °F 20.6 °F 30.11 in WSW 10.0 mph 16.0 mph 54% 0.00 in
13:04 36.2 °F 22.0 °F 30.11 in WSW 8.0 mph 16.0 mph 56% 0.00 in
13:09 36.3 °F 21.7 °F 30.11 in WSW 8.0 mph 15.0 mph 55% 0.00 in
13:14 36.3 °F 21.2 °F 30.11 in SW 8.0 mph 16.0 mph 54% 0.00 in
13:19 36.1 °F 21.0 °F 30.10 in WSW 4.0 mph 20.0 mph 54% 0.00 in
13:24 36.2 °F 21.6 °F 30.10 in SW 15.0 mph 17.0 mph 55% 0.00 in
13:29 36.2 °F 21.6 °F 30.10 in SW 10.0 mph 17.0 mph 55% 0.00 in
13:34 36.4 °F 22.2 °F 30.10 in SW 9.0 mph 16.0 mph 56% 0.00 in
13:39 36.2 °F 21.6 °F 30.10 in SW 9.0 mph 16.0 mph 55% 0.00 in
13:44 36.3 °F 21.7 °F 30.09 in WNW 6.0 mph 14.0 mph 55% 0.00 in
13:49 36.2 °F 21.6 °F 30.09 in WSW 3.0 mph 17.0 mph 55% 0.00 in
13:54 36.0 °F 20.9 °F 30.09 in SW 10.0 mph 18.0 mph 54% 0.00 in
13:59 36.2 °F 22.0 °F 30.09 in West 10.0 mph 17.0 mph 56% 0.00 in
14:04 36.1 °F 21.5 °F 30.09 in WSW 9.0 mph 17.0 mph 55% 0.00 in
14:09 37.0 °F 22.7 °F 30.08 in WSW 8.0 mph 16.0 mph 56% 0.00 in
14:14 36.8 °F 22.1 °F 30.08 in SW 6.0 mph 12.0 mph 55% 0.00 in
14:19 36.5 °F 21.0 °F 30.09 in WSW 6.0 mph 13.0 mph 53% 0.00 in
14:24 36.5 °F 21.8 °F 30.09 in WSW 9.0 mph 18.0 mph 55% 0.00 in
14:29 36.1 °F 21.9 °F 30.08 in SW 10.0 mph 18.0 mph 56% 0.00 in
14:34 35.8 °F 21.6 °F 30.09 in SW 9.0 mph 18.0 mph 56% 0.00 in
14:39 35.9 °F 22.1 °F 30.09 in SW 9.0 mph 16.0 mph 57% 0.00 in
14:44 35.9 °F 21.3 °F 30.09 in WSW 8.0 mph 17.0 mph 55% 0.00 in
14:49 35.7 °F 20.7 °F 30.09 in SW 9.0 mph 17.0 mph 54% 0.00 in
14:54 35.5 °F 20.9 °F 30.09 in SW 4.0 mph 18.0 mph 55% 0.00 in
14:59 35.6 °F 21.4 °F 30.10 in West 7.0 mph 15.0 mph 56% 0.00 in
15:04 35.4 °F 22.1 °F 30.09 in SSW 16.0 mph 17.0 mph 58% 0.00 in
15:09 35.5 °F 23.4 °F 30.10 in SW 9.0 mph 17.0 mph 61% 0.00 in
15:14 35.5 °F 22.6 °F 30.10 in SW 8.0 mph 22.0 mph 59% 0.00 in
15:19 35.5 °F 22.6 °F 30.10 in SW 9.0 mph 18.0 mph 59% 0.00 in
15:24 35.5 °F 22.2 °F 30.10 in WSW 9.0 mph 18.0 mph 58% 0.00 in
15:29 35.2 °F 22.3 °F 30.10 in West 6.0 mph 14.0 mph 59% 0.00 in
15:34 35.2 °F 22.3 °F 30.10 in SW 3.0 mph 19.0 mph 59% 0.00 in
15:39 35.6 °F 23.1 °F 30.10 in SW 7.0 mph 19.0 mph 60% 0.00 in
15:44 35.3 °F 21.6 °F 30.10 in SW 7.0 mph 16.0 mph 57% 0.00 in
15:49 35.3 °F 21.6 °F 30.10 in SW 8.0 mph 16.0 mph 57% 0.00 in
15:54 35.3 °F 20.7 °F 30.10 in WSW 8.0 mph 16.0 mph 55% 0.00 in
15:59 35.4 °F 20.8 °F 30.10 in WNW 6.0 mph 19.0 mph 55% 0.00 in
16:04 35.4 °F 21.7 °F 30.10 in WSW 4.0 mph 16.0 mph 57% 0.00 in
16:09 35.4 °F 22.1 °F 30.09 in West 7.0 mph 15.0 mph 58% 0.00 in
16:14 35.3 °F 22.0 °F 30.09 in WNW 10.0 mph 14.0 mph 58% 0.00 in
16:19 35.3 °F 22.8 °F 30.09 in SW 11.0 mph 15.0 mph 60% 0.00 in
16:24 35.4 °F 23.3 °F 30.09 in SW 8.0 mph 13.0 mph 61% 0.00 in
16:29 35.5 °F 22.2 °F 30.09 in West 9.0 mph 12.0 mph 58% 0.00 in
16:34 35.4 °F 22.9 °F 30.09 in WSW 4.0 mph 15.0 mph 60% 0.00 in
16:39 35.3 °F 24.0 °F 30.09 in WSW 7.0 mph 15.0 mph 63% 0.00 in
16:44 35.2 °F 24.2 °F 30.09 in SW 7.0 mph 12.0 mph 64% 0.00 in
16:49 35.2 °F 24.2 °F 30.09 in SW 6.0 mph 11.0 mph 64% 0.00 in
16:54 35.1 °F 24.5 °F 30.10 in SW 7.0 mph 13.0 mph 65% 0.00 in
16:59 35.0 °F 24.0 °F 30.09 in WSW 7.0 mph 14.0 mph 64% 0.00 in
17:04 35.0 °F 24.4 °F 30.09 in WSW 7.0 mph 14.0 mph 65% 0.00 in
17:09 34.9 °F 23.9 °F 30.09 in WSW 11.0 mph 14.0 mph 64% 0.00 in
17:14 34.9 °F 23.9 °F 30.09 in SW 8.0 mph 14.0 mph 64% 0.00 in
17:24 34.9 °F 23.9 °F 30.09 in WSW 7.0 mph 13.0 mph 64% 0.00 in
17:29 35.0 °F 24.4 °F 30.09 in WSW 6.0 mph 12.0 mph 65% 0.00 in
17:34 35.0 °F 24.4 °F 30.09 in WSW 4.0 mph 10.0 mph 65% 0.00 in
17:39 34.9 °F 23.9 °F 30.09 in WSW 7.0 mph 12.0 mph 64% 0.00 in
17:44 35.0 °F 24.0 °F 30.09 in SW 5.0 mph 11.0 mph 64% 0.00 in
17:49 35.0 °F 24.4 °F 30.09 in SW 6.0 mph 12.0 mph 65% 0.00 in
17:54 34.9 °F 24.3 °F 30.09 in WSW 5.0 mph 12.0 mph 65% 0.00 in
17:59 34.9 °F 24.7 °F 30.09 in WSW 5.0 mph 12.0 mph 66% 0.00 in
18:04 34.8 °F 24.6 °F 30.09 in SW 3.0 mph 14.0 mph 66% 0.00 in
18:09 34.7 °F 24.9 °F 30.10 in WSW 4.0 mph 14.0 mph 67% 0.00 in
18:14 34.6 °F 24.8 °F 30.09 in SSW 7.0 mph 9.0 mph 67% 0.00 in
18:19 34.6 °F 24.8 °F 30.09 in WSW 6.0 mph 12.0 mph 67% 0.00 in
18:24 34.6 °F 24.8 °F 30.09 in WSW 6.0 mph 13.0 mph 67% 0.00 in
18:29 34.6 °F 25.1 °F 30.09 in SW 7.0 mph 15.0 mph 68% 0.00 in
18:34 34.6 °F 25.1 °F 30.09 in WSW 6.0 mph 14.0 mph 68% 0.00 in
18:39 34.6 °F 25.5 °F 30.09 in WSW 5.0 mph 12.0 mph 69% 0.00 in
18:44 34.5 °F 25.4 °F 30.09 in SW 9.0 mph 10.0 mph 69% 0.00 in
18:49 34.5 °F 25.4 °F 30.10 in West 5.0 mph 10.0 mph 69% 0.00 in
18:54 34.5 °F 25.4 °F 30.10 in WSW 6.0 mph 12.0 mph 69% 0.00 in
18:59 34.5 °F 25.7 °F 30.10 in WSW 6.0 mph 12.0 mph 70% 0.00 in
19:04 34.4 °F 25.6 °F 30.10 in WSW 5.0 mph 11.0 mph 70% 0.00 in
19:09 34.4 °F 25.6 °F 30.10 in WSW 5.0 mph 10.0 mph 70% 0.00 in
19:14 34.4 °F 26.0 °F 30.09 in SW 6.0 mph 14.0 mph 71% 0.00 in
19:19 34.3 °F 25.9 °F 30.09 in WSW 4.0 mph 12.0 mph 71% 0.00 in
19:24 34.3 °F 25.9 °F 30.10 in WSW 5.0 mph 12.0 mph 71% 0.00 in
19:29 34.2 °F 26.1 °F 30.10 in WSW 5.0 mph 10.0 mph 72% 0.00 in
19:34 34.3 °F 26.2 °F 30.10 in West 5.0 mph 9.0 mph 72% 0.00 in
19:39 34.3 °F 26.2 °F 30.11 in WSW 5.0 mph 10.0 mph 72% 0.00 in
19:44 34.3 °F 26.2 °F 30.11 in SW 5.0 mph 10.0 mph 72% 0.00 in
19:49 34.3 °F 26.2 °F 30.11 in WSW 6.0 mph 9.0 mph 72% 0.00 in
19:54 34.3 °F 26.2 °F 30.11 in WSW 4.0 mph 10.0 mph 72% 0.00 in
19:59 34.3 °F 26.2 °F 30.11 in WSW 4.0 mph 11.0 mph 72% 0.00 in
20:04 34.3 °F 26.2 °F 30.11 in WSW 5.0 mph 11.0 mph 72% 0.00 in
20:09 34.4 °F 26.3 °F 30.11 in WSW 5.0 mph 9.0 mph 72% 0.00 in
20:14 34.3 °F 26.2 °F 30.12 in WSW 4.0 mph 9.0 mph 72% 0.00 in
20:19 34.2 °F 26.4 °F 30.11 in WSW 4.0 mph 8.0 mph 73% 0.00 in
20:24 34.2 °F 26.1 °F 30.11 in WSW 4.0 mph 7.0 mph 72% 0.00 in
20:29 34.2 °F 26.1 °F 30.11 in WSW 3.0 mph 7.0 mph 72% 0.00 in
20:34 34.3 °F 26.2 °F 30.11 in West 5.0 mph 9.0 mph 72% 0.00 in
20:39 34.2 °F 26.1 °F 30.11 in West 2.0 mph 7.0 mph 72% 0.00 in
20:44 34.3 °F 26.2 °F 30.10 in WSW 1.0 mph 6.0 mph 72% 0.00 in
20:49 34.1 °F 26.0 °F 30.10 in West 5.0 mph 7.0 mph 72% 0.00 in
20:54 34.1 °F 26.0 °F 30.11 in WSW 4.0 mph 8.0 mph 72% 0.00 in
20:59 34.1 °F 26.0 °F 30.10 in West 4.0 mph 8.0 mph 72% 0.00 in
21:04 34.1 °F 26.3 °F 30.10 in West 3.0 mph 6.0 mph 73% 0.00 in
21:09 34.0 °F 26.3 °F 30.10 in West 3.0 mph 5.0 mph 73% 0.00 in
21:14 33.9 °F 26.2 °F 30.10 in West 3.0 mph 5.0 mph 73% 0.00 in
21:19 33.9 °F 26.2 °F 30.10 in West 2.0 mph 4.0 mph 73% 0.00 in
21:24 33.8 °F 26.1 °F 30.10 in West 2.0 mph 4.0 mph 73% 0.00 in
21:29 33.7 °F 26.0 °F 30.10 in West 3.0 mph 6.0 mph 73% 0.00 in
21:34 33.6 °F 25.9 °F 30.10 in West 1.0 mph 6.0 mph 73% 0.00 in
21:39 33.5 °F 25.4 °F 30.10 in NW 4.0 mph 6.0 mph 72% 0.00 in
21:44 33.5 °F 25.4 °F 30.09 in SW 2.0 mph 4.0 mph 72% 0.00 in
21:49 33.5 °F 25.4 °F 30.09 in West 3.0 mph 4.0 mph 72% 0.00 in
21:54 33.4 °F 25.3 °F 30.08 in Calm   3.0 mph 72% 0.00 in
21:59 33.4 °F 25.7 °F 30.08 in Calm   4.0 mph 73% 0.00 in
22:04 33.3 °F 25.6 °F 30.08 in WNW 1.0 mph 4.0 mph 73% 0.00 in
22:09 33.2 °F 25.5 °F 30.08 in West 2.0 mph 4.0 mph 73% 0.00 in
22:14 33.2 °F 25.1 °F 30.08 in West 2.0 mph 4.0 mph 72% 0.00 in
22:19 33.1 °F 25.1 °F 30.08 in West 2.0 mph 4.0 mph 72% 0.00 in
22:24 33.0 °F 24.3 °F 30.07 in West 2.0 mph 4.0 mph 70% 0.00 in
22:29 33.0 °F 23.9 °F 30.07 in NW 2.0 mph 4.0 mph 69% 0.00 in
22:34 33.0 °F 23.2 °F 30.07 in WNW 2.0 mph 6.0 mph 67% 0.00 in
22:39 33.0 °F 22.5 °F 30.07 in WNW 2.0 mph 6.0 mph 65% 0.00 in
22:44 32.9 °F 21.3 °F 30.06 in WNW 2.0 mph 5.0 mph 62% 0.00 in
22:49 33.0 °F 21.0 °F 30.06 in WNW 3.0 mph 6.0 mph 61% 0.00 in
22:54 32.9 °F 20.9 °F 30.06 in Calm   3.0 mph 61% 0.00 in
22:59 33.0 °F 20.2 °F 30.06 in WNW 2.0 mph 2.0 mph 59% 0.00 in
23:04 33.0 °F 19.8 °F 30.06 in Calm   3.0 mph 58% 0.00 in
23:09 32.8 °F 20.0 °F 30.06 in NW 1.0 mph 3.0 mph 59% 0.00 in
23:14 32.7 °F 19.5 °F 30.05 in WNW 1.0 mph 3.0 mph 58% 0.00 in
23:19 32.5 °F 19.7 °F 30.05 in WNW 1.0 mph 3.0 mph 59% 0.00 in
23:24 32.5 °F 19.3 °F 30.05 in Calm   2.0 mph 58% 0.00 in
23:29 32.4 °F 19.7 °F 30.05 in Calm   2.0 mph 59% 0.00 in
23:34 32.5 °F 19.3 °F 30.04 in WNW 1.0 mph 2.0 mph 58% 0.00 in
23:39 32.4 °F 19.3 °F 30.04 in Calm   2.0 mph 58% 0.00 in
23:44 32.2 °F 19.5 °F 30.04 in Calm     59% 0.00 in
23:49 32.0 °F 19.7 °F 30.04 in Calm     60% 0.00 in
23:54 32.0 °F 19.7 °F 30.03 in Calm   1.0 mph 60% 0.00 in
23:59 31.7 °F 19.8 °F 30.03 in Calm     61% 0.00 in
Buffalo, New York, USA
Compliments of Weather Underground - 2.5 mb